Time;durP1;ratioP1;P1;durP2;ratioP2;P2;SDS_P1;SDS_P2;PMS_P1;PMS_P2;Temp;Humidity;BMP_temperature;BMP_pressure;BME280_temperature;BME280_humidity;BME280_pressure;Samples;Min_cycle;Max_cycle;Signal;HPM_P1;HPM_P2
2022/04/20 00:02:07;;;;;;;3.40;3.10;;;0.80;99.90;0.60;96460.00;;;;4970489;28;20471;-69
2022/04/20 00:04:36;;;;;;;3.90;3.43;;;0.90;99.90;0.60;96469.00;;;;4969534;28;20447;-69
2022/04/20 00:07:05;;;;;;;2.13;2.03;;;1.00;99.90;0.30;96460.00;;;;4968625;28;20561;-74
2022/04/20 00:09:34;;;;;;;2.37;2.20;;;0.90;99.90;0.20;96459.00;;;;4969871;28;20470;-72
2022/04/20 00:12:04;;;;;;;3.07;2.63;;;0.90;99.90;0.30;96473.00;;;;4960680;28;20493;-72
2022/04/20 00:14:33;;;;;;;3.40;3.10;;;0.90;99.90;0.40;96470.00;;;;4967517;28;20888;-72
2022/04/20 00:17:01;;;;;;;3.30;3.00;;;0.80;99.90;0.50;96469.00;;;;4962967;28;20537;-72
2022/04/20 00:19:30;;;;;;;3.67;2.60;;;0.80;99.90;0.60;96472.00;;;;4967172;28;20499;-72
2022/04/20 00:21:58;;;;;;;3.87;3.57;;;0.80;99.90;0.60;96473.00;;;;4967562;28;20511;-72
2022/04/20 00:24:27;;;;;;;4.90;3.47;;;0.90;99.90;0.40;96477.00;;;;4967028;28;20510;-74
2022/04/20 00:26:55;;;;;;;3.50;3.20;;;0.80;99.90;0.20;96457.00;;;;4962484;28;20474;-72
2022/04/20 00:29:25;;;;;;;4.13;3.73;;;0.80;99.90;0.20;96458.00;;;;4968257;28;20447;-72
2022/04/20 00:31:54;;;;;;;3.87;3.57;;;0.70;99.90;0.30;96468.00;;;;4970086;28;20919;-72
2022/04/20 00:34:22;;;;;;;4.13;3.73;;;0.70;99.90;0.30;96467.00;;;;4964765;28;20439;-72
2022/04/20 00:36:54;;;;;;;7.77;3.27;;;0.60;99.90;0.30;96460.00;;;;4954296;28;20456;-72
2022/04/20 00:39:22;;;;;;;2.80;2.60;;;0.60;99.90;0.30;96464.00;;;;4959508;28;20505;-72
2022/04/20 00:41:52;;;;;;;3.77;3.17;;;0.60;99.90;0.40;96471.00;;;;4968385;28;20577;-72
2022/04/20 00:44:21;;;;;;;4.03;3.37;;;0.70;99.90;0.40;96475.00;;;;4968181;28;20443;-72
2022/04/20 00:46:53;;;;;;;3.60;2.70;;;0.60;99.90;0.40;96484.00;;;;4968299;28;20870;-73
2022/04/20 00:49:22;;;;;;;3.87;3.17;;;0.60;99.90;0.40;96487.00;;;;4967961;28;20435;-72
2022/04/20 00:51:57;;;;;;;4.07;3.40;;;0.60;99.90;0.30;96473.00;;;;4968537;28;20482;-72
2022/04/20 00:54:26;;;;;;;3.63;3.03;;;0.60;99.90;0.30;96475.00;;;;4960711;28;20446;-73
2022/04/20 00:56:55;;;;;;;3.77;3.17;;;0.60;99.90;0.40;96483.00;;;;4957856;28;20487;-73
2022/04/20 00:59:28;;;;;;;4.07;3.67;;;0.60;99.90;0.20;96478.00;;;;4967714;28;20466;-72
2022/04/20 01:01:59;;;;;;;4.07;3.77;;;0.60;99.90;-0.10;96471.00;;;;4969611;28;20486;-72
2022/04/20 01:04:28;;;;;;;3.70;3.33;;;0.60;99.90;-0.30;96468.00;;;;4968123;28;20435;-72
2022/04/20 01:07:00;;;;;;;4.00;3.37;;;0.50;99.90;0.00;96488.00;;;;4957231;28;20522;-72
2022/04/20 01:09:28;;;;;;;3.70;3.40;;;0.40;99.90;0.10;96480.00;;;;4968792;28;20443;-72
2022/04/20 01:11:57;;;;;;;3.50;3.20;;;0.60;99.90;0.00;96484.00;;;;4967624;28;20434;-72
2022/04/20 01:14:26;;;;;;;3.40;3.10;;;0.40;99.90;0.00;96491.00;;;;4968308;28;20521;-72
2022/04/20 01:16:54;;;;;;;2.97;2.77;;;0.40;99.90;0.00;96477.00;;;;4960574;28;20455;-72
2022/04/20 01:19:32;;;;;;;3.80;2.90;;;0.30;99.90;0.10;96477.00;;;;4966441;28;20444;-72
2022/04/20 01:22:02;;;;;;;4.10;3.40;;;0.40;99.90;0.00;96489.00;;;;4966390;28;20493;-72
2022/04/20 01:24:31;;;;;;;3.20;3.00;;;0.30;99.90;-0.10;96491.00;;;;4957612;28;20443;-72
2022/04/20 01:27:00;;;;;;;3.33;3.07;;;0.60;99.90;-0.10;96499.00;;;;4966692;28;20474;-72
2022/04/20 01:29:29;;;;;;;4.03;3.07;;;0.30;99.90;-0.10;96490.00;;;;4967229;28;20443;-72
2022/04/20 01:31:58;;;;;;;3.73;3.47;;;0.60;99.90;-0.10;96499.00;;;;4969294;28;20513;-71
2022/04/20 01:34:26;;;;;;;3.80;3.30;;;0.20;99.90;0.00;96495.00;;;;4964038;28;20522;-72
2022/04/20 01:36:55;;;;;;;5.70;3.87;;;0.20;99.90;-0.10;96491.00;;;;4962720;28;20932;-72
2022/04/20 01:39:25;;;;;;;3.63;3.33;;;0.30;99.90;-0.10;96503.00;;;;4968099;28;20471;-72
2022/04/20 01:41:53;;;;;;;3.20;2.90;;;0.40;99.90;-0.10;96502.00;;;;4967614;28;20541;-71
2022/04/20 01:44:21;;;;;;;4.50;3.93;;;0.20;99.90;-0.10;96496.00;;;;4958252;28;20835;-72
2022/04/20 01:46:50;;;;;;;4.43;3.90;;;0.20;99.90;-0.20;96503.00;;;;4968196;28;20458;-72
2022/04/20 01:49:18;;;;;;;4.40;3.50;;;0.20;99.90;-0.10;96512.00;;;;4966684;28;20464;-72
2022/04/20 01:51:54;;;;;;;3.73;3.43;;;0.20;99.90;-0.10;96514.00;;;;4968805;28;20450;-72
2022/04/20 01:54:23;;;;;;;3.90;3.50;;;0.20;99.90;-0.10;96507.00;;;;4968726;28;20509;-72
2022/04/20 01:56:53;;;;;;;4.97;4.07;;;0.40;99.90;-0.20;96504.00;;;;4967677;28;20458;-71
2022/04/20 01:59:21;;;;;;;4.07;3.67;;;0.20;99.90;-0.20;96507.00;;;;4967926;28;21197;-72
2022/04/20 02:04:32;;;;;;;3.50;3.20;;;0.20;99.90;-0.20;96509.00;;;;4924928;28;20466;-72
2022/04/20 02:07:00;;;;;;;3.90;3.60;;;0.20;99.90;-0.20;96511.00;;;;4966969;28;20845;-72
2022/04/20 02:09:30;;;;;;;5.40;3.20;;;0.20;99.90;-0.20;96518.00;;;;4968591;28;20443;-72
2022/04/20 02:11:59;;;;;;;3.70;3.40;;;0.20;99.90;-0.30;96508.00;;;;4967469;28;20849;-72
2022/04/20 02:14:27;;;;;;;3.73;3.43;;;0.10;99.90;-0.20;96506.00;;;;4958698;28;20866;-72
2022/04/20 02:16:56;;;;;;;4.30;3.53;;;0.10;99.90;-0.20;96515.00;;;;4959774;28;20470;-72
2022/04/20 02:19:24;;;;;;;4.10;3.30;;;0.10;99.90;-0.30;96505.00;;;;4965423;28;20443;-72
2022/04/20 02:21:53;;;;;;;3.20;3.00;;;0.20;99.90;-0.40;96506.00;;;;4968341;28;20483;-72
2022/04/20 02:24:21;;;;;;;4.07;2.90;;;0.10;99.90;-0.40;96509.00;;;;4969474;28;20470;-72
2022/04/20 02:26:51;;;;;;;3.70;3.40;;;0.10;99.90;-0.20;96514.00;;;;4970624;28;20653;-72
2022/04/20 02:29:20;;;;;;;3.63;3.33;;;0.10;99.90;-0.20;96502.00;;;;4971625;28;20493;-72
2022/04/20 02:31:48;;;;;;;2.90;2.70;;;0.10;99.90;-0.50;96508.00;;;;4971685;28;20443;-72
2022/04/20 02:34:17;;;;;;;4.73;4.07;;;0.10;99.90;-0.40;96521.00;;;;4969337;28;20436;-72
2022/04/20 02:36:46;;;;;;;5.20;4.30;;;0.10;99.90;-0.30;96511.00;;;;4962637;28;20486;-72
2022/04/20 02:39:14;;;;;;;4.30;3.40;;;-0.80;99.90;-0.30;96520.00;;;;4971201;28;20533;-72
2022/04/20 02:41:43;;;;;;;4.43;4.03;;;0.10;99.90;-0.40;96514.00;;;;4970756;28;20443;-72
2022/04/20 02:44:14;;;;;;;6.17;3.93;;;0.10;99.90;-0.30;96512.00;;;;4971890;28;20460;-71
2022/04/20 02:46:44;;;;;;;3.83;3.43;;;0.10;99.90;-0.20;96512.00;;;;4969962;28;20455;-72
2022/04/20 02:49:13;;;;;;;4.40;4.00;;;0.10;99.90;-0.10;96525.00;;;;4970203;28;21063;-72
2022/04/20 02:51:41;;;;;;;4.07;3.60;;;0.20;99.90;-0.20;96513.00;;;;4972047;28;20446;-72
2022/04/20 02:54:10;;;;;;;5.20;4.20;;;0.10;99.90;-0.30;96518.00;;;;4974951;28;20454;-71
2022/04/20 02:56:39;;;;;;;4.23;3.83;;;0.10;99.90;-0.40;96517.00;;;;4971638;28;20486;-71
2022/04/20 02:59:07;;;;;;;3.67;3.37;;;0.10;99.90;-0.50;96523.00;;;;4963953;28;20439;-71
2022/04/20 03:01:37;;;;;;;4.37;3.80;;;0.10;99.90;-0.60;96517.00;;;;4969382;28;20447;-71
2022/04/20 03:04:06;;;;;;;5.77;4.23;;;0.00;99.90;-0.70;96522.00;;;;4969696;28;20542;-71
2022/04/20 03:06:35;;;;;;;4.87;4.30;;;0.00;99.90;-0.60;96523.00;;;;4970405;28;20471;-72
2022/04/20 03:09:04;;;;;;;4.23;3.93;;;0.00;99.90;-0.40;96519.00;;;;4969964;28;20445;-71
2022/04/20 03:11:33;;;;;;;4.70;3.30;;;0.10;99.90;-0.30;96517.00;;;;4970225;28;20439;-72
2022/04/20 03:14:01;;;;;;;3.77;3.47;;;0.10;99.90;-0.30;96520.00;;;;4963947;28;20447;-72
2022/04/20 03:16:37;;;;;;;4.40;3.63;;;0.00;99.90;-0.30;96509.00;;;;4962341;28;20478;-72
2022/04/20 03:19:05;;;;;;;6.90;3.77;;;0.10;99.90;-0.30;96500.00;;;;4969684;28;20495;-71
2022/04/20 03:21:34;;;;;;;3.83;3.17;;;0.10;99.90;-0.50;96511.00;;;;4961779;28;20435;-72
2022/04/20 03:24:03;;;;;;;4.07;3.67;;;0.10;99.90;-0.70;96500.00;;;;4968298;28;20512;-71
2022/04/20 03:26:31;;;;;;;3.83;3.47;;;0.00;99.90;-0.70;96504.00;;;;4978115;23;20499;-68
2022/04/20 03:29:00;;;;;;;3.83;3.37;;;0.00;99.90;-0.80;96511.00;;;;4951811;28;20850;-68
2022/04/20 03:31:28;;;;;;;4.67;4.27;;;-0.10;99.90;-0.70;96508.00;;;;4953082;29;20494;-68
2022/04/20 03:34:01;;;;;;;4.10;3.67;;;-0.10;99.90;-0.80;96501.00;;;;4952194;28;20517;-68
2022/04/20 03:36:31;;;;;;;5.50;3.90;;;-0.10;99.90;-0.60;96508.00;;;;4953137;29;20989;-68
2022/04/20 03:38:59;;;;;;;6.13;4.53;;;-0.10;99.90;-0.40;96509.00;;;;4952856;29;20436;-68
2022/04/20 03:41:28;;;;;;;3.93;3.53;;;-0.10;99.90;-1.00;96508.00;;;;4953244;29;20451;-66
2022/04/20 03:43:56;;;;;;;4.17;3.77;;;-0.10;99.90;-1.00;96509.00;;;;4951369;29;20487;-68
2022/04/20 03:46:25;;;;;;;6.50;3.83;;;-0.20;99.90;-0.90;96503.00;;;;4952078;29;20555;-68
2022/04/20 03:48:54;;;;;;;4.60;4.17;;;-0.20;99.90;-0.70;96504.00;;;;4952809;29;20444;-68
2022/04/20 03:51:24;;;;;;;9.63;4.53;;;-0.20;99.90;-0.60;96508.00;;;;4952848;29;20479;-68
2022/04/20 03:53:52;;;;;;;5.57;4.67;;;0.00;99.90;-0.60;96508.00;;;;4952417;29;20456;-68
2022/04/20 03:56:21;;;;;;;5.60;4.90;;;-0.10;99.90;-0.80;96515.00;;;;4952780;29;20820;-67
2022/04/20 03:58:49;;;;;;;4.90;4.00;;;-0.20;99.90;-0.90;96516.00;;;;4951562;29;20462;-67
2022/04/20 04:01:17;;;;;;;8.00;4.80;;;-0.30;99.90;-0.90;96519.00;;;;4952502;29;20440;-68
2022/04/20 04:03:46;;;;;;;5.03;4.33;;;-0.30;99.90;-1.10;96516.00;;;;4950617;29;20475;-67
2022/04/20 04:06:14;;;;;;;4.27;3.87;;;-0.40;99.90;-0.90;96518.00;;;;4951267;29;20887;-68
2022/04/20 04:08:45;;;;;;;5.03;4.17;;;-0.40;99.90;-0.80;96516.00;;;;4952413;29;20436;-67
2022/04/20 04:11:13;;;;;;;4.20;3.50;;;-0.40;99.90;-0.80;96522.00;;;;4947756;29;20526;-67
2022/04/20 04:13:42;;;;;;;5.30;4.53;;;-0.30;99.90;-0.70;96517.00;;;;4955837;28;20490;-69
2022/04/20 04:16:10;;;;;;;4.47;4.07;;;-0.30;99.90;-0.80;96530.00;;;;4951800;28;20628;-68
2022/04/20 04:18:38;;;;;;;4.70;4.20;;;-0.30;99.90;-0.70;96526.00;;;;4950828;28;20455;-68
2022/04/20 04:21:07;;;;;;;4.73;3.80;;;-0.10;99.90;-0.70;96527.00;;;;4951722;29;20448;-68
2022/04/20 04:23:36;;;;;;;4.57;3.80;;;-0.30;99.90;-1.20;96519.00;;;;4951075;29;20490;-67
2022/04/20 04:26:05;;;;;;;4.07;3.77;;;-0.30;99.90;-1.00;96533.00;;;;4952342;29;20539;-67
2022/04/20 04:28:34;;;;;;;5.30;4.63;;;-0.40;99.90;-0.90;96527.00;;;;4951783;29;20523;-68
2022/04/20 04:31:02;;;;;;;4.47;4.07;;;-0.40;99.90;-0.90;96537.00;;;;4953319;29;20439;-67
2022/04/20 04:33:31;;;;;;;5.03;4.53;;;-0.40;99.90;-0.80;96527.00;;;;4951797;29;20454;-67
2022/04/20 04:35:59;;;;;;;4.90;4.43;;;-0.20;99.90;-0.60;96537.00;;;;4952222;29;20436;-67
2022/04/20 04:38:28;;;;;;;5.67;5.03;;;-0.30;99.90;-0.70;96543.00;;;;4951313;29;20446;-67
2022/04/20 04:40:57;;;;;;;6.93;6.20;;;-0.30;99.90;-0.80;96532.00;;;;4951466;28;20463;-68
2022/04/20 04:43:27;;;;;;;6.83;6.23;;;-0.30;99.90;-0.80;96538.00;;;;4952287;29;20471;-68
2022/04/20 04:48:42;;;;;;;4.63;4.23;;;-0.30;99.90;-0.60;96553.00;;;;4950475;29;20447;-67
2022/04/20 04:51:11;;;;;;;5.40;4.90;;;-0.30;99.90;-0.50;96548.00;;;;4942424;28;20506;-68
2022/04/20 04:53:40;;;;;;;6.47;3.97;;;-0.20;99.90;-0.60;96550.00;;;;4950753;28;20455;-67
2022/04/20 04:56:10;;;;;;;7.43;4.40;;;-0.20;99.90;-0.60;96545.00;;;;4951748;29;20491;-67
2022/04/20 04:58:40;;;;;;;5.57;5.10;;;-0.20;99.90;-0.40;96544.00;;;;4948915;29;20851;-67
2022/04/20 05:01:09;;;;;;;4.37;4.00;;;-0.20;99.90;-0.40;96551.00;;;;4952040;29;20431;-68
2022/04/20 05:03:37;;;;;;;6.37;5.80;;;-0.10;99.90;-0.50;96554.00;;;;4952110;28;20483;-67
2022/04/20 05:06:06;;;;;;;5.73;5.23;;;0.00;99.90;-0.30;96557.00;;;;4946883;29;20447;-68
2022/04/20 05:08:34;;;;;;;8.17;4.77;;;-0.10;99.90;-0.20;96553.00;;;;4948852;28;20456;-68
2022/04/20 05:11:03;;;;;;;5.40;4.73;;;0.00;99.90;0.00;96559.00;;;;4951250;29;20440;-68
2022/04/20 05:13:31;;;;;;;5.73;4.20;;;0.10;99.90;0.10;96560.00;;;;4951925;29;20511;-68
2022/04/20 05:16:01;;;;;;;4.50;3.80;;;0.20;99.90;0.10;96566.00;;;;4951895;29;20432;-68
2022/04/20 05:18:29;;;;;;;4.40;3.30;;;0.30;99.90;-0.30;96559.00;;;;4950920;29;20444;-68
2022/04/20 05:20:58;;;;;;;4.27;3.70;;;0.30;99.90;-0.20;96555.00;;;;4951814;29;20443;-68
2022/04/20 05:23:27;;;;;;;5.43;4.93;;;0.40;99.90;-0.20;96562.00;;;;4947325;28;20483;-67
2022/04/20 05:25:56;;;;;;;7.83;4.83;;;0.30;99.90;-0.10;96569.00;;;;4950902;28;20440;-68
2022/04/20 05:28:24;;;;;;;7.70;5.53;;;0.40;99.90;0.00;96576.00;;;;4950763;28;20447;-68
2022/04/20 05:30:54;;;;;;;12.93;7.20;;;0.40;99.90;0.00;96572.00;;;;4951538;29;20439;-67
2022/04/20 05:33:24;;;;;;;6.50;5.50;;;0.40;99.90;0.10;96571.00;;;;4951592;29;20446;-68
2022/04/20 05:35:52;;;;;;;6.00;5.43;;;0.60;99.90;0.10;96567.00;;;;4946078;29;20460;-68
2022/04/20 05:43:54;;;;;;;4.47;4.07;;;0.60;99.90;0.00;96579.00;;;;4949992;29;20526;-68
2022/04/20 05:46:22;;;;;;;4.57;3.73;;;0.60;99.90;-0.20;96571.00;;;;4950253;29;20459;-68
2022/04/20 05:48:52;;;;;;;4.93;4.43;;;0.50;99.90;-0.10;96571.00;;;;4951142;29;20498;-68
2022/04/20 05:51:21;;;;;;;3.83;3.27;;;0.50;99.90;-0.20;96562.00;;;;4951688;29;20443;-68
2022/04/20 05:53:49;;;;;;;4.17;3.70;;;0.50;99.90;0.00;96566.00;;;;4951734;29;20440;-69
2022/04/20 05:56:18;;;;;;;3.93;3.33;;;0.50;99.90;0.00;96572.00;;;;4952604;28;20459;-68
2022/04/20 05:58:50;;;;;;;4.10;3.43;;;0.60;99.90;0.00;96573.00;;;;4954785;29;20439;-70
2022/04/20 06:01:22;;;;;;;7.83;4.53;;;0.60;99.90;0.40;96575.00;;;;4953483;28;20457;-68
2022/04/20 06:03:52;;;;;;;6.37;5.70;;;0.70;99.90;0.60;96570.00;;;;4959773;28;20478;-69
2022/04/20 06:06:20;;;;;;;8.20;7.13;;;0.80;99.90;0.80;96574.00;;;;4951146;29;20527;-69
2022/04/20 06:08:49;;;;;;;7.73;6.37;;;0.90;99.90;0.80;96562.00;;;;4954495;28;20455;-69
2022/04/20 06:11:18;;;;;;;5.53;5.03;;;1.00;99.90;1.20;96560.00;;;;4954590;29;20431;-69
2022/04/20 06:13:47;;;;;;;6.03;5.27;;;1.10;99.90;1.40;96565.00;;;;4954544;29;20479;-69
2022/04/20 06:16:15;;;;;;;5.67;4.90;;;1.30;99.90;1.50;96564.00;;;;4953498;29;20483;-69
2022/04/20 06:18:44;;;;;;;5.57;5.03;;;1.40;99.90;1.70;96561.00;;;;4949993;29;20499;-69
2022/04/20 06:21:14;;;;;;;4.97;4.43;;;1.60;99.90;1.60;96567.00;;;;4952561;28;20459;-69
2022/04/20 06:23:42;;;;;;;5.60;3.83;;;1.70;99.90;1.90;96566.00;;;;4948264;29;20439;-70
2022/04/20 06:26:11;;;;;;;5.20;4.63;;;1.80;99.90;2.00;96579.00;;;;4953409;29;20439;-69
2022/04/20 06:28:40;;;;;;;8.77;5.13;;;1.90;99.90;2.20;96555.00;;;;4954311;29;20431;-70
2022/04/20 06:31:08;;;;;;;6.43;5.80;;;2.10;99.90;2.50;96562.00;;;;4955777;29;20444;-69
2022/04/20 06:33:37;;;;;;;4.73;4.33;;;2.20;99.90;2.40;96550.00;;;;4955319;29;20443;-70
2022/04/20 06:36:06;;;;;;;5.83;3.97;;;2.40;99.90;2.60;96556.00;;;;4955097;29;20436;-70
2022/04/20 06:38:36;;;;;;;5.50;5.00;;;2.50;99.90;2.80;96559.00;;;;4954174;29;20579;-69
2022/04/20 06:41:05;;;;;;;5.73;5.17;;;2.70;99.90;2.90;96565.00;;;;4954806;29;20432;-69
2022/04/20 06:43:35;;;;;;;5.57;4.77;;;2.80;99.90;2.80;96555.00;;;;4954292;29;20482;-69
2022/04/20 06:46:03;;;;;;;6.63;5.07;;;3.00;99.90;3.00;96551.00;;;;4954116;29;20432;-69
2022/04/20 06:48:32;;;;;;;5.63;5.13;;;3.10;99.90;3.00;96551.00;;;;4953364;29;20523;-69
2022/04/20 06:51:02;;;;;;;7.47;5.77;;;3.20;99.90;3.30;96555.00;;;;4954196;29;20436;-69
2022/04/20 06:59:03;;;;;;;8.27;7.47;;;3.60;99.90;4.30;96552.00;;;;4953964;29;20431;-69
2022/04/20 07:01:32;;;;;;;10.03;7.40;;;3.80;99.90;4.50;96551.00;;;;4954139;29;20566;-68
2022/04/20 07:04:00;;;;;;;9.43;6.97;;;4.00;99.90;4.50;96543.00;;;;4952772;29;20463;-68
2022/04/20 07:06:29;;;;;;;7.70;6.57;;;4.20;99.90;4.50;96549.00;;;;4953724;29;20466;-68
2022/04/20 07:08:57;;;;;;;9.73;6.33;;;4.40;99.90;4.20;96540.00;;;;4952345;28;20447;-68
2022/04/20 07:11:28;;;;;;;5.43;4.87;;;4.40;99.90;4.30;96542.00;;;;4954221;29;20428;-68
2022/04/20 07:13:57;;;;;;;9.80;6.20;;;4.50;99.90;4.40;96534.00;;;;4954092;29;20528;-68
2022/04/20 07:16:27;;;;;;;7.23;6.53;;;4.60;99.90;4.80;96532.00;;;;4953504;29;20512;-68
2022/04/20 07:18:57;;;;;;;11.57;7.50;;;4.70;99.90;4.90;96533.00;;;;4953667;29;20491;-68
2022/04/20 07:21:25;;;;;;;7.93;6.53;;;4.80;99.90;5.20;96533.00;;;;4951725;29;20200;-68
2022/04/20 07:23:54;;;;;;;9.17;6.33;;;4.90;99.90;5.30;96533.00;;;;4953414;29;20204;-68
2022/04/20 07:26:22;;;;;;;8.13;6.97;;;5.10;99.90;5.80;96540.00;;;;4953302;29;20299;-68
2022/04/20 07:28:52;;;;;;;8.30;6.60;;;5.30;99.90;6.10;96538.00;;;;4953168;29;20239;-68
2022/04/20 07:31:21;;;;;;;8.40;7.60;;;5.50;99.90;5.90;96535.00;;;;4953744;29;20196;-68
2022/04/20 07:33:49;;;;;;;10.23;5.90;;;5.70;99.90;6.40;96536.00;;;;4953784;29;20223;-68
2022/04/20 07:36:18;;;;;;;6.73;5.83;;;5.90;99.90;7.00;96530.00;;;;4953825;29;20228;-69
2022/04/20 07:38:48;;;;;;;7.70;6.07;;;6.10;99.90;7.20;96540.00;;;;4953196;29;20203;-68
2022/04/20 07:41:17;;;;;;;8.70;6.07;;;6.60;99.90;7.10;96542.00;;;;4953680;29;20204;-68
2022/04/20 07:43:46;;;;;;;5.53;5.10;;;6.70;99.90;7.20;96535.00;;;;4953576;29;20204;-68
2022/04/20 07:46:17;;;;;;;6.73;4.83;;;6.90;99.90;7.10;96539.00;;;;4952882;29;20997;-68
2022/04/20 07:48:46;;;;;;;7.53;5.17;;;7.10;99.90;7.70;96545.00;;;;4952479;29;20293;-68
2022/04/20 07:51:14;;;;;;;7.37;4.63;;;7.20;99.90;8.30;96553.00;;;;4952828;29;20310;-68
2022/04/20 07:53:43;;;;;;;6.27;5.00;;;7.40;99.90;8.30;96554.00;;;;4951176;29;20196;-68
2022/04/20 07:56:11;;;;;;;6.20;5.03;;;7.60;99.90;8.50;96555.00;;;;4948001;29;20270;-68
2022/04/20 07:58:40;;;;;;;6.13;4.50;;;7.80;99.90;8.40;96551.00;;;;4947934;29;20695;-68
2022/04/20 08:01:10;;;;;;;6.03;5.43;;;7.90;99.90;8.70;96551.00;;;;4950579;29;20259;-68
2022/04/20 08:03:40;;;;;;;4.47;4.03;;;8.10;99.90;9.00;96554.00;;;;4949334;29;20211;-68
2022/04/20 08:06:09;;;;;;;5.07;3.50;;;8.20;99.90;8.90;96557.00;;;;4952630;29;20224;-67
2022/04/20 08:08:37;;;;;;;5.80;4.63;;;8.40;99.90;9.20;96548.00;;;;4951917;29;20188;-68
2022/04/20 08:11:05;;;;;;;5.53;4.00;;;8.50;99.90;9.10;96551.00;;;;4952346;29;20199;-68
2022/04/20 08:16:20;;;;;;;6.13;3.70;;;8.80;99.90;9.90;96558.00;;;;4952763;29;20247;-68
2022/04/20 08:18:50;;;;;;;3.87;3.20;;;9.00;99.90;10.20;96553.00;;;;4944233;28;20255;-68
2022/04/20 08:21:19;;;;;;;3.97;2.83;;;9.30;99.90;10.30;96558.00;;;;4952685;29;20263;-68
2022/04/20 08:23:47;;;;;;;3.53;2.80;;;9.40;99.90;10.30;96547.00;;;;4952093;29;20200;-68
2022/04/20 08:26:16;;;;;;;5.30;3.63;;;9.50;99.90;10.40;96544.00;;;;4951956;29;20270;-68
2022/04/20 08:28:44;;;;;;;3.93;3.10;;;9.60;99.90;10.70;96530.00;;;;4949908;29;20210;-68
2022/04/20 08:31:15;;;;;;;3.20;2.50;;;9.80;99.90;10.80;96520.00;;;;4947713;29;20218;-68
2022/04/20 08:33:44;;;;;;;6.33;3.83;;;9.90;99.90;10.90;96527.00;;;;4951568;29;20283;-68
2022/04/20 08:36:15;;;;;;;5.77;2.87;;;10.00;99.90;11.10;96529.00;;;;4944045;28;20226;-68
2022/04/20 08:38:44;;;;;;;3.37;3.07;;;10.20;99.90;11.20;96531.00;;;;4950438;29;20206;-68
2022/04/20 08:41:15;;;;;;;4.67;3.00;;;10.30;99.90;11.40;96522.00;;;;4951700;29;20200;-68
2022/04/20 08:43:44;;;;;;;2.87;2.67;;;10.40;99.90;11.20;96532.00;;;;4950531;29;20216;-68
2022/04/20 08:46:13;;;;;;;2.50;2.30;;;10.60;97.00;10.70;96523.00;;;;4951257;29;20196;-68
2022/04/20 08:48:41;;;;;;;3.33;3.03;;;10.60;88.40;11.10;96517.00;;;;4952034;29;20287;-68
2022/04/20 08:51:10;;;;;;;3.73;3.30;;;10.50;87.90;11.30;96529.00;;;;4952522;28;20199;-68
2022/04/20 08:53:40;;;;;;;2.47;2.27;;;10.60;87.10;11.70;96527.00;;;;4952185;29;20204;-68
2022/04/20 08:58:55;;;;;;;2.30;2.10;;;10.80;83.50;10.10;96512.00;;;;4951504;29;20311;-68
2022/04/20 09:01:28;;;;;;;5.20;2.87;;;10.70;68.60;10.80;96512.00;;;;4952117;29;20335;-68
2022/04/20 09:03:59;;;;;;;3.13;2.73;;;10.60;71.00;11.30;96513.00;;;;4952619;29;20196;-68
2022/04/20 09:06:28;;;;;;;2.57;2.37;;;10.60;76.60;11.10;96520.00;;;;4952272;29;20235;-68
2022/04/20 09:08:57;;;;;;;4.23;3.00;;;10.70;74.80;11.00;96515.00;;;;4951698;29;20199;-67
2022/04/20 09:11:26;;;;;;;4.73;2.47;;;10.70;78.00;10.20;96506.00;;;;4951996;29;20207;-67
2022/04/20 09:13:57;;;;;;;4.20;3.30;;;10.70;73.10;11.60;96502.00;;;;4952019;29;20211;-67
2022/04/20 09:16:32;;;;;;;3.30;2.77;;;10.80;77.30;12.20;96510.00;;;;4949182;28;20275;-67
2022/04/20 09:19:03;;;;;;;5.47;4.37;;;11.00;79.00;12.30;96517.00;;;;4951453;29;20198;-68
2022/04/20 09:21:34;;;;;;;3.93;2.77;;;11.30;77.40;12.40;96512.00;;;;4951908;29;20203;-67
2022/04/20 09:24:09;;;;;;;3.90;2.80;;;11.30;75.90;12.50;96510.00;;;;4951747;29;20207;-68
2022/04/20 09:26:52;;;;;;;3.30;2.53;;;11.60;73.60;12.50;96522.00;;;;4974122;23;20254;-71
2022/04/20 09:29:21;;;;;;;2.37;2.10;;;11.80;74.40;12.50;96510.00;;;;4969425;28;20201;-69
2022/04/20 09:31:52;;;;;;;2.77;2.57;;;11.90;74.20;13.20;96512.00;;;;4968425;28;20203;-71
2022/04/20 09:34:35;;;;;;;3.83;2.30;;;12.10;75.70;13.60;96517.00;;;;4970476;28;20199;-71
2022/04/20 09:37:13;;;;;;;2.80;2.10;;;12.30;76.10;13.70;96521.00;;;;4970654;28;20231;-71
2022/04/20 09:39:47;;;;;;;2.73;2.40;;;12.60;75.40;14.00;96508.00;;;;4970564;28;20302;-71
2022/04/20 09:42:15;;;;;;;3.10;2.80;;;12.80;74.60;13.40;96511.00;;;;4970843;28;20199;-69
2022/04/20 09:44:55;;;;;;;2.93;2.73;;;12.90;69.90;12.70;96503.00;;;;4970935;28;20195;-70
2022/04/20 09:50:16;;;;;;;3.70;3.40;;;13.00;68.60;14.00;96498.00;;;;4970807;28;20195;-69
2022/04/20 09:52:48;;;;;;;8.10;6.47;;;13.10;65.50;14.80;96496.00;;;;4970831;28;20191;-71
2022/04/20 09:55:29;;;;;;;9.13;5.80;;;13.30;66.20;15.20;96501.00;;;;4970674;28;20230;-69
2022/04/20 09:58:15;;;;;;;4.47;3.60;;;13.50;66.40;13.90;96495.00;;;;4968921;28;20298;-71
2022/04/20 10:00:46;;;;;;;9.20;5.37;;;13.70;63.90;14.70;96491.00;;;;4970675;28;20262;-71
2022/04/20 10:03:25;;;;;;;4.03;3.63;;;13.70;64.90;14.60;96496.00;;;;4970561;28;20199;-70
2022/04/20 10:05:54;;;;;;;7.87;3.60;;;13.70;64.60;16.00;96501.00;;;;4971021;28;20214;-70
2022/04/20 10:08:23;;;;;;;5.83;3.67;;;14.00;67.30;16.40;96492.00;;;;4969956;28;20230;-70
2022/04/20 10:10:55;;;;;;;3.47;2.67;;;14.30;67.00;16.90;96489.00;;;;4970908;28;20199;-70
2022/04/20 10:13:27;;;;;;;4.13;3.50;;;14.60;65.90;15.50;96491.00;;;;4970164;28;20262;-70
2022/04/20 10:16:06;;;;;;;3.30;3.00;;;14.90;61.40;15.50;96475.00;;;;4970786;28;20251;-70
2022/04/20 10:18:37;;;;;;;6.27;2.77;;;14.90;59.20;16.40;96478.00;;;;4963187;28;20278;-70
2022/04/20 10:21:08;;;;;;;7.90;2.80;;;15.00;61.70;17.40;96474.00;;;;4968019;28;20195;-70
2022/04/20 10:23:38;;;;;;;4.53;2.70;;;15.30;63.80;16.70;96465.00;;;;4965459;28;20223;-70
2022/04/20 10:26:10;;;;;;;8.97;6.37;;;15.50;59.80;16.90;96466.00;;;;4970178;28;20205;-70
2022/04/20 10:28:55;;;;;;;6.23;3.53;;;15.60;64.70;16.00;96463.00;;;;4967709;28;20203;-70
2022/04/20 10:31:32;;;;;;;5.53;4.37;;;15.50;59.70;16.40;96454.00;;;;4963273;28;20207;-70
2022/04/20 10:34:01;;;;;;;5.93;3.10;;;15.50;60.70;16.70;96456.00;;;;4968826;28;20199;-71
2022/04/20 10:36:32;;;;;;;4.60;4.17;;;15.50;58.50;15.80;96455.00;;;;4967088;28;20230;-70
2022/04/20 10:39:22;;;;;;;5.60;3.43;;;15.30;58.80;16.30;96449.00;;;;4969819;28;20482;-70
2022/04/20 10:42:27;;;;;;;6.10;2.80;;;15.40;58.70;17.20;96429.00;;;;4964541;28;20327;-70
2022/04/20 10:45:03;;;;;;;3.37;2.77;;;15.60;59.20;16.60;96426.00;;;;4968147;28;20286;-71
2022/04/20 10:47:35;;;;;;;4.73;2.40;;;15.70;58.70;16.00;96429.00;;;;4972450;28;20230;-70
2022/04/20 10:50:18;;;;;;;3.07;2.77;;;15.80;58.40;16.20;96429.00;;;;4973592;28;20215;-71
2022/04/20 10:52:52;;;;;;;3.33;2.57;;;15.80;57.20;15.70;96421.00;;;;4973978;28;20204;-71
2022/04/20 10:55:53;;;;;;;2.77;2.40;;;15.70;55.70;17.00;96418.00;;;;4973535;28;20705;-71
2022/04/20 10:58:23;;;;;;;3.47;2.53;;;15.90;58.80;17.70;96419.00;;;;4971618;28;20222;-70
2022/04/20 11:01:10;;;;;;;3.97;3.00;;;16.10;57.60;17.40;96422.00;;;;4973707;28;20199;-71
2022/04/20 11:04:06;;;;;;;2.90;2.60;;;16.30;57.70;17.10;96424.00;;;;4971584;28;20262;-70
2022/04/20 11:07:23;;;;;;;3.67;3.37;;;16.40;57.00;14.80;96398.00;;;;4971322;28;20273;-70
2022/04/20 11:10:07;;;;;;;3.77;2.87;;;16.10;54.40;14.90;96465.00;;;;4970896;28;20273;-70
2022/04/20 11:19:07;;;;;;;3.10;2.80;;;15.40;57.40;16.90;96392.00;;;;4971447;28;20199;-71
2022/04/20 11:21:36;;;;;;;3.63;2.60;;;15.90;55.90;18.10;96395.00;;;;4969798;28;20209;-71
2022/04/20 11:24:07;;;;;;;4.57;3.07;;;16.10;57.20;18.30;96389.00;;;;4973061;28;20203;-71
2022/04/20 11:26:39;;;;;;;3.87;3.43;;;16.50;57.20;18.50;96406.00;;;;4972782;28;20285;-71
2022/04/20 11:29:14;;;;;;;2.73;2.53;;;16.90;58.90;19.10;96430.00;;;;4969460;28;20227;-71
2022/04/20 11:31:47;;;;;;;3.50;2.83;;;17.30;58.90;18.30;96399.00;;;;4970617;28;20195;-71
2022/04/20 11:34:19;;;;;;;2.37;2.17;;;17.60;55.30;14.50;96417.00;;;;4972404;28;20211;-70
2022/04/20 11:36:52;;;;;;;3.33;2.77;;;16.90;52.60;14.70;96357.00;;;;4971482;28;20223;-70
2022/04/20 11:39:24;;;;;;;2.83;2.13;;;15.90;53.90;15.70;96358.00;;;;4971352;28;20290;-71
2022/04/20 11:41:55;;;;;;;6.13;3.20;;;15.90;54.40;16.30;96442.00;;;;4971950;28;20200;-70
2022/04/20 11:44:25;;;;;;;6.97;3.93;;;15.70;55.50;16.40;96451.00;;;;4971901;28;20262;-70
2022/04/20 11:46:58;;;;;;;3.83;3.43;;;15.60;55.70;16.50;96368.00;;;;4972180;28;20219;-70
2022/04/20 11:49:33;;;;;;;2.53;2.33;;;15.60;54.70;18.80;96374.00;;;;4972479;28;20210;-70